createdAt,value
2018-06-16T00:01:22.201Z,11.90
2018-06-16T00:03:50.463Z,11.80
2018-06-16T00:06:18.686Z,13.40
2018-06-16T00:08:46.890Z,15.03
2018-06-16T00:11:15.112Z,14.13
2018-06-16T00:13:43.365Z,14.60
2018-06-16T00:16:11.581Z,12.43
2018-06-16T00:18:39.877Z,12.33
2018-06-16T00:21:08.114Z,12.20
2018-06-16T00:23:36.351Z,12.70
2018-06-16T00:26:04.531Z,13.20
2018-06-16T00:28:32.752Z,12.03
2018-06-16T00:31:00.972Z,12.40
2018-06-16T00:33:29.211Z,12.70
2018-06-16T00:35:57.404Z,12.70
2018-06-16T00:38:25.667Z,11.87
2018-06-16T00:40:54.141Z,12.63
2018-06-16T00:43:22.385Z,13.00
2018-06-16T00:45:50.574Z,13.27
2018-06-16T00:48:18.777Z,13.00
2018-06-16T00:50:46.978Z,12.30
2018-06-16T00:53:14.941Z,12.07
2018-06-16T00:55:43.164Z,12.83
2018-06-16T00:58:11.351Z,11.50
2018-06-16T01:00:39.589Z,12.17
2018-06-16T01:03:07.513Z,12.93
2018-06-16T01:05:35.746Z,12.97
2018-06-16T01:08:03.980Z,11.60
2018-06-16T01:10:32.199Z,10.70
2018-06-16T01:13:00.405Z,11.67
2018-06-16T01:15:28.618Z,11.67
2018-06-16T01:17:56.846Z,11.70
2018-06-16T01:20:25.045Z,9.63
2018-06-16T01:22:53.245Z,11.13
2018-06-16T01:25:21.576Z,10.13
2018-06-16T01:27:49.819Z,10.30
2018-06-16T01:30:18.034Z,11.13
2018-06-16T01:32:46.243Z,9.83
2018-06-16T01:35:14.458Z,10.80
2018-06-16T01:37:42.670Z,10.40
2018-06-16T01:40:10.862Z,9.87
2018-06-16T01:42:38.851Z,10.23
2018-06-16T01:45:07.073Z,10.10
2018-06-16T01:47:35.289Z,9.80
2018-06-16T01:50:03.534Z,10.03
2018-06-16T01:52:31.749Z,9.20
2018-06-16T01:54:59.977Z,10.20
2018-06-16T01:57:28.193Z,10.30
2018-06-16T01:59:56.393Z,9.63
2018-06-16T02:02:24.601Z,10.17
2018-06-16T02:04:52.801Z,10.50
2018-06-16T02:07:20.774Z,9.97
2018-06-16T02:09:49.012Z,9.50
2018-06-16T02:12:17.217Z,10.60
2018-06-16T02:14:45.446Z,11.20
2018-06-16T02:17:13.658Z,11.03
2018-06-16T02:19:41.887Z,10.30
2018-06-16T02:22:10.097Z,10.60
2018-06-16T02:24:38.394Z,11.77
2018-06-16T02:27:06.614Z,10.90
2018-06-16T02:29:34.813Z,10.27
2018-06-16T02:32:03.215Z,10.43
2018-06-16T02:34:31.414Z,10.17
2018-06-16T02:36:59.658Z,10.17
2018-06-16T02:39:27.865Z,11.10
2018-06-16T02:41:56.135Z,11.07
2018-06-16T02:44:24.348Z,11.47
2018-06-16T02:46:52.567Z,11.27
2018-06-16T02:49:20.782Z,11.53
2018-06-16T02:51:48.998Z,14.40
2018-06-16T02:54:17.378Z,11.10
2018-06-16T02:56:45.650Z,10.17
2018-06-16T02:59:13.866Z,11.90
2018-06-16T03:01:42.124Z,10.47
2018-06-16T03:04:10.326Z,10.60
2018-06-16T03:06:38.534Z,11.87
2018-06-16T03:09:07.698Z,10.90
2018-06-16T03:11:35.919Z,10.90
2018-06-16T03:14:04.123Z,11.27
2018-06-16T03:16:32.386Z,11.07
2018-06-16T03:19:00.644Z,10.90
2018-06-16T03:21:28.837Z,11.30
2018-06-16T03:23:57.052Z,12.00
2018-06-16T03:26:25.253Z,12.10
2018-06-16T03:28:53.497Z,10.87
2018-06-16T03:31:21.698Z,12.57
2018-06-16T03:33:49.921Z,11.20
2018-06-16T03:36:18.174Z,11.90
2018-06-16T03:38:46.370Z,13.13
2018-06-16T03:41:14.610Z,13.30
2018-06-16T03:43:42.822Z,12.17
2018-06-16T03:46:11.057Z,12.13
2018-06-16T03:48:39.261Z,12.17
2018-06-16T03:51:07.536Z,11.67
2018-06-16T03:53:35.798Z,13.00
2018-06-16T03:56:04.086Z,11.17
2018-06-16T03:58:32.312Z,11.20
2018-06-16T04:01:00.582Z,12.63
2018-06-16T04:03:28.801Z,11.90
2018-06-16T04:05:57.002Z,11.50
2018-06-16T04:08:25.204Z,10.50
2018-06-16T04:10:53.498Z,11.30
2018-06-16T04:13:21.717Z,11.80
2018-06-16T04:15:49.914Z,12.27
2018-06-16T04:18:18.155Z,11.73
2018-06-16T04:20:46.353Z,11.67
2018-06-16T04:23:14.603Z,11.30
2018-06-16T04:25:42.795Z,11.93
2018-06-16T04:28:11.036Z,11.50
2018-06-16T04:30:39.257Z,10.00
2018-06-16T04:33:07.450Z,10.37
2018-06-16T04:35:35.689Z,10.10
2018-06-16T04:38:03.929Z,9.93
2018-06-16T04:40:32.119Z,10.33
2018-06-16T04:43:00.517Z,10.73
2018-06-16T04:45:28.881Z,10.10
2018-06-16T04:47:56.985Z,10.13
2018-06-16T04:50:25.255Z,10.30
2018-06-16T04:52:53.474Z,10.20
2018-06-16T04:55:21.710Z,10.23
2018-06-16T04:57:50.038Z,9.53
2018-06-16T05:00:18.310Z,10.50
2018-06-16T05:02:46.540Z,9.77
2018-06-16T05:05:14.750Z,10.73
2018-06-16T05:07:42.970Z,10.03
2018-06-16T05:10:11.215Z,10.67
2018-06-16T05:12:39.463Z,10.70
2018-06-16T05:15:07.739Z,9.70
2018-06-16T05:17:35.976Z,10.67
2018-06-16T05:20:04.173Z,10.03
2018-06-16T05:22:32.483Z,10.07
2018-06-16T05:25:00.698Z,10.10
2018-06-16T05:27:29.173Z,10.37
2018-06-16T05:29:57.378Z,8.93
2018-06-16T05:32:25.567Z,8.67
2018-06-16T05:34:53.588Z,9.90
2018-06-16T05:37:21.753Z,8.00
2018-06-16T05:39:49.969Z,7.70
2018-06-16T05:42:18.203Z,8.80
2018-06-16T05:44:46.424Z,8.13
2018-06-16T05:47:14.644Z,7.17
2018-06-16T05:49:42.852Z,8.43
2018-06-16T05:52:11.056Z,7.70
2018-06-16T05:54:39.273Z,8.20
2018-06-16T05:57:07.483Z,7.67
2018-06-16T05:59:35.730Z,7.40
2018-06-16T06:02:04.174Z,8.17
2018-06-16T06:04:32.387Z,9.20
2018-06-16T06:07:00.598Z,8.90
2018-06-16T06:09:28.814Z,8.47
2018-06-16T06:11:57.038Z,7.97
2018-06-16T06:14:25.259Z,7.97
2018-06-16T06:16:53.472Z,8.50
2018-06-16T06:19:21.682Z,8.17
2018-06-16T06:21:49.882Z,8.20
2018-06-16T06:24:18.132Z,8.63
2018-06-16T06:26:46.375Z,8.80
2018-06-16T06:29:14.565Z,7.70
2018-06-16T06:31:43.410Z,7.73
2018-06-16T06:34:11.646Z,7.97
2018-06-16T06:36:39.834Z,7.07
2018-06-16T06:39:08.893Z,6.87
2018-06-16T06:41:37.173Z,7.30
2018-06-16T06:44:05.494Z,6.63
2018-06-16T06:46:34.661Z,7.47
2018-06-16T06:49:02.954Z,7.63
2018-06-16T06:51:31.199Z,7.37
2018-06-16T06:53:59.418Z,6.40
2018-06-16T06:56:27.799Z,6.87
2018-06-16T06:58:56.057Z,7.30
2018-06-16T07:01:24.361Z,7.20
2018-06-16T07:03:52.664Z,9.10
2018-06-16T07:06:20.827Z,6.87
2018-06-16T07:08:49.046Z,8.33
2018-06-16T07:11:17.290Z,7.67
2018-06-16T07:13:45.508Z,7.23
2018-06-16T07:16:13.723Z,7.00
2018-06-16T07:18:41.926Z,6.90
2018-06-16T07:21:10.149Z,7.13
2018-06-16T07:23:38.372Z,7.10
2018-06-16T07:26:06.592Z,7.00
2018-06-16T07:28:34.822Z,7.27
2018-06-16T07:31:03.042Z,6.63
2018-06-16T07:33:31.269Z,7.00
2018-06-16T07:35:59.517Z,6.77
2018-06-16T07:38:27.726Z,7.10
2018-06-16T07:40:56.158Z,6.43
2018-06-16T07:43:24.390Z,6.50
2018-06-16T07:45:52.594Z,7.07
2018-06-16T07:48:20.874Z,7.30
2018-06-16T07:50:48.838Z,6.77
2018-06-16T07:53:17.085Z,5.73
2018-06-16T07:55:45.351Z,6.23
2018-06-16T07:58:13.554Z,10.50
2018-06-16T08:00:41.781Z,7.30
2018-06-16T08:03:10.406Z,6.20
2018-06-16T08:05:38.655Z,6.80
2018-06-16T08:08:06.861Z,6.03
2018-06-16T08:10:35.109Z,7.97
2018-06-16T08:13:03.308Z,5.57
2018-06-16T08:15:31.563Z,6.20
2018-06-16T08:17:59.827Z,5.83
2018-06-16T08:20:28.038Z,8.23
2018-06-16T08:22:56.299Z,6.13
2018-06-16T08:25:24.526Z,6.07
2018-06-16T08:27:52.749Z,5.83
2018-06-16T08:30:20.966Z,6.13
2018-06-16T08:32:49.169Z,5.67
2018-06-16T08:35:17.461Z,5.87
2018-06-16T08:37:45.670Z,6.07
2018-06-16T08:40:14.509Z,5.63
2018-06-16T08:42:42.736Z,5.43
2018-06-16T08:45:10.961Z,5.70
2018-06-16T08:47:39.182Z,5.27
2018-06-16T08:50:07.412Z,4.90
2018-06-16T08:52:35.677Z,4.60
2018-06-16T08:55:03.934Z,5.00
2018-06-16T08:57:32.179Z,6.40
2018-06-16T09:00:00.435Z,5.90
2018-06-16T09:02:28.633Z,5.30
2018-06-16T09:04:56.823Z,5.00
2018-06-16T09:07:25.093Z,5.20
2018-06-16T09:09:53.326Z,6.10
2018-06-16T09:12:21.797Z,6.10
2018-06-16T09:14:50.196Z,4.70
2018-06-16T09:17:18.490Z,5.90
2018-06-16T09:19:47.118Z,5.40
2018-06-16T09:22:15.337Z,5.00
2018-06-16T09:24:43.575Z,5.77
2018-06-16T09:27:11.797Z,5.10
2018-06-16T09:29:40.225Z,5.30
2018-06-16T09:32:08.457Z,4.80
2018-06-16T09:34:36.670Z,5.30
2018-06-16T09:37:05.032Z,5.70
2018-06-16T09:39:33.262Z,5.07
2018-06-16T09:42:01.499Z,4.43
2018-06-16T09:44:29.702Z,4.17
2018-06-16T09:46:57.908Z,5.43
2018-06-16T09:49:26.153Z,5.40
2018-06-16T09:51:54.658Z,5.83
2018-06-16T09:54:22.871Z,5.60
2018-06-16T09:56:51.135Z,5.47
2018-06-16T09:59:19.351Z,5.10
2018-06-16T10:01:47.534Z,5.17
2018-06-16T10:04:15.767Z,4.40
2018-06-16T10:06:43.996Z,5.97
2018-06-16T10:09:12.241Z,6.50
2018-06-16T10:11:40.478Z,5.87
2018-06-16T10:14:08.858Z,5.50
2018-06-16T10:16:37.194Z,6.10
2018-06-16T10:19:05.425Z,4.60
2018-06-16T10:21:33.659Z,5.93
2018-06-16T10:24:01.862Z,5.57
2018-06-16T10:26:30.156Z,4.93
2018-06-16T10:28:58.431Z,5.80
2018-06-16T10:31:26.688Z,6.00
2018-06-16T10:33:54.927Z,5.20
2018-06-16T10:36:23.322Z,5.00
2018-06-16T10:38:51.550Z,4.77
2018-06-16T10:41:19.846Z,5.10
2018-06-16T10:43:48.106Z,5.07
2018-06-16T10:46:16.317Z,4.17
2018-06-16T10:48:44.522Z,4.80
2018-06-16T10:51:12.718Z,4.40
2018-06-16T10:53:41.114Z,4.83
2018-06-16T10:56:09.404Z,6.37
2018-06-16T10:58:37.896Z,4.10
2018-06-16T11:01:06.129Z,4.60
2018-06-16T11:03:34.106Z,4.90
2018-06-16T11:06:02.330Z,5.23
2018-06-16T11:08:30.632Z,5.60
2018-06-16T11:10:58.918Z,5.80
2018-06-16T11:13:27.217Z,5.03
2018-06-16T11:15:55.463Z,5.27
2018-06-16T11:18:23.666Z,5.20
2018-06-16T11:20:52.015Z,4.60
2018-06-16T11:23:20.210Z,4.43
2018-06-16T11:25:48.474Z,6.07
2018-06-16T11:28:16.693Z,4.87
2018-06-16T11:30:44.913Z,4.47
2018-06-16T11:33:13.150Z,5.00
2018-06-16T11:35:41.361Z,5.33
2018-06-16T11:38:09.709Z,4.90
2018-06-16T11:40:38.004Z,3.60
2018-06-16T11:43:06.718Z,4.30
2018-06-16T11:45:34.660Z,3.90
2018-06-16T11:48:02.886Z,3.53
2018-06-16T11:50:31.143Z,4.30
2018-06-16T11:52:59.389Z,5.77
2018-06-16T11:55:27.622Z,4.57
2018-06-16T11:57:55.886Z,4.03
2018-06-16T12:00:24.090Z,4.27
2018-06-16T12:02:52.277Z,4.10
2018-06-16T12:05:20.850Z,4.10
2018-06-16T12:07:49.089Z,4.27
2018-06-16T12:10:17.099Z,3.97
2018-06-16T12:12:44.997Z,4.50
2018-06-16T12:15:13.226Z,3.70
2018-06-16T12:17:41.459Z,3.63
2018-06-16T12:20:09.674Z,3.70
2018-06-16T12:22:37.881Z,3.60
2018-06-16T12:25:06.120Z,3.50
2018-06-16T12:27:34.362Z,4.77
2018-06-16T12:30:02.808Z,3.27
2018-06-16T12:32:31.040Z,3.20
2018-06-16T12:34:59.261Z,3.87
2018-06-16T12:37:27.485Z,3.53
2018-06-16T12:39:55.783Z,4.30
2018-06-16T12:42:24.033Z,3.40
2018-06-16T12:44:52.603Z,4.17
2018-06-16T12:47:20.942Z,3.20
2018-06-16T12:49:49.276Z,3.30
2018-06-16T12:52:17.494Z,3.47
2018-06-16T12:54:45.706Z,3.47
2018-06-16T12:57:13.682Z,4.00
2018-06-16T12:59:42.056Z,3.40
2018-06-16T13:02:10.310Z,3.00
2018-06-16T13:04:38.559Z,3.70
2018-06-16T13:07:06.902Z,3.53
2018-06-16T13:09:35.121Z,3.60
2018-06-16T13:12:04.119Z,4.77
2018-06-16T13:14:32.317Z,3.50
2018-06-16T13:17:00.659Z,4.00
2018-06-16T13:19:28.995Z,6.83
2018-06-16T13:21:57.294Z,3.43
2018-06-16T13:24:25.524Z,4.20
2018-06-16T13:26:53.940Z,3.70
2018-06-16T13:29:22.331Z,3.73
2018-06-16T13:31:50.599Z,3.80
2018-06-16T13:34:18.826Z,3.40
2018-06-16T13:36:47.052Z,3.07
2018-06-16T13:39:15.325Z,3.50
2018-06-16T13:41:43.530Z,3.17
2018-06-16T13:44:11.950Z,3.60
2018-06-16T13:46:40.173Z,4.10
2018-06-16T13:49:08.393Z,3.50
2018-06-16T13:51:36.614Z,3.30
2018-06-16T13:54:05.049Z,3.80
2018-06-16T13:56:33.327Z,3.83
2018-06-16T13:59:01.493Z,3.20
2018-06-16T14:01:29.701Z,3.47
2018-06-16T14:03:57.941Z,3.53
2018-06-16T14:06:26.785Z,3.03
2018-06-16T14:08:54.965Z,3.20
2018-06-16T14:11:23.193Z,3.60
2018-06-16T14:13:51.446Z,3.83
2018-06-16T14:16:19.829Z,5.50
2018-06-16T14:18:48.082Z,3.77
2018-06-16T14:21:16.259Z,3.30
2018-06-16T14:23:44.617Z,3.50
2018-06-16T14:26:12.821Z,4.10
2018-06-16T14:28:41.226Z,4.10
2018-06-16T14:31:09.477Z,3.03
2018-06-16T14:33:37.719Z,3.80
2018-06-16T14:36:06.266Z,3.83
2018-06-16T14:38:34.598Z,3.80
2018-06-16T14:41:02.792Z,3.30
2018-06-16T14:43:30.986Z,3.77
2018-06-16T14:45:58.935Z,3.00
2018-06-16T14:48:27.162Z,3.67
2018-06-16T14:50:55.365Z,3.80
2018-06-16T14:53:23.614Z,3.60
2018-06-16T14:55:51.829Z,4.20
2018-06-16T14:58:24.418Z,4.33
2018-06-16T15:00:52.814Z,3.07
2018-06-16T15:03:21.058Z,3.90
2018-06-16T15:05:49.374Z,3.30
2018-06-16T15:08:17.610Z,4.27
2018-06-16T15:10:45.809Z,3.80
2018-06-16T15:13:14.033Z,3.30
2018-06-16T15:15:42.293Z,3.60
2018-06-16T15:18:10.973Z,3.90
2018-06-16T15:20:39.425Z,4.37
2018-06-16T15:23:07.978Z,4.00
2018-06-16T15:25:36.746Z,4.27
2018-06-16T15:28:04.922Z,4.27
2018-06-16T15:30:33.117Z,4.37
2018-06-16T15:33:01.407Z,3.93
2018-06-16T15:35:29.917Z,4.10
2018-06-16T15:37:58.124Z,3.67
2018-06-16T15:40:26.357Z,4.00
2018-06-16T15:42:54.631Z,3.40
2018-06-16T15:45:22.986Z,4.67
2018-06-16T15:47:51.490Z,3.67
2018-06-16T15:50:19.766Z,4.20
2018-06-16T15:52:48.022Z,4.20
2018-06-16T15:55:16.238Z,3.93
2018-06-16T15:57:44.429Z,3.70
2018-06-16T16:00:12.648Z,4.30
2018-06-16T16:02:40.850Z,3.30
2018-06-16T16:05:09.073Z,3.30
2018-06-16T16:07:37.476Z,3.40
2018-06-16T16:10:05.766Z,3.70
2018-06-16T16:12:34.203Z,3.87
2018-06-16T16:15:02.390Z,3.70
2018-06-16T16:17:30.630Z,3.87
2018-06-16T16:19:58.870Z,4.10
2018-06-16T16:22:27.110Z,3.83
2018-06-16T16:24:55.338Z,3.90
2018-06-16T16:27:23.796Z,3.33
2018-06-16T16:29:51.969Z,4.40
2018-06-16T16:32:20.206Z,4.90
2018-06-16T16:34:48.422Z,4.30
2018-06-16T16:37:16.649Z,4.40
2018-06-16T16:39:44.902Z,3.90
2018-06-16T16:42:13.210Z,38.20
2018-06-16T16:44:41.589Z,4.07
2018-06-16T16:47:09.808Z,4.30
2018-06-16T16:49:38.071Z,4.17
2018-06-16T16:52:06.352Z,4.07
2018-06-16T16:54:34.605Z,3.63
2018-06-16T16:57:02.869Z,4.53
2018-06-16T16:59:31.053Z,4.97
2018-06-16T17:01:59.264Z,4.13
2018-06-16T17:04:27.540Z,3.90
2018-06-16T17:06:55.742Z,4.10
2018-06-16T17:09:24.011Z,4.83
2018-06-16T17:11:52.858Z,4.97
2018-06-16T17:14:21.097Z,5.27
2018-06-16T17:16:49.400Z,5.00
2018-06-16T17:19:17.679Z,6.00
2018-06-16T17:21:45.975Z,4.10
2018-06-16T17:24:14.234Z,5.03
2018-06-16T17:26:42.481Z,4.60
2018-06-16T17:29:10.778Z,4.37
2018-06-16T17:31:38.974Z,5.57
2018-06-16T17:34:08.586Z,5.17
2018-06-16T17:36:36.789Z,5.00
2018-06-16T17:39:07.801Z,5.27
2018-06-16T17:41:36.061Z,5.07
2018-06-16T17:44:04.317Z,5.40
2018-06-16T17:46:32.537Z,4.97
2018-06-16T17:49:00.761Z,5.33
2018-06-16T17:51:29.057Z,5.70
2018-06-16T17:53:57.321Z,6.50
2018-06-16T17:56:25.830Z,6.27
2018-06-16T17:58:54.275Z,6.00
2018-06-16T18:01:22.506Z,7.57
2018-06-16T18:03:50.729Z,6.57
2018-06-16T18:06:19.017Z,6.00
2018-06-16T18:08:47.277Z,6.33
2018-06-16T18:11:15.542Z,6.00
2018-06-16T18:13:43.737Z,8.00
2018-06-16T18:18:15.022Z,6.10
2018-06-16T18:21:58.075Z,5.63
2018-06-16T18:24:26.259Z,7.10
2018-06-16T18:26:54.515Z,6.33
2018-06-16T18:29:22.714Z,6.63
2018-06-16T18:31:50.923Z,6.70
2018-06-16T18:34:19.113Z,8.33
2018-06-16T18:36:47.308Z,7.93
2018-06-16T18:39:15.522Z,6.50
2018-06-16T18:41:43.942Z,7.07
2018-06-16T18:44:12.146Z,8.07
2018-06-16T18:46:40.356Z,8.27
2018-06-16T18:49:08.557Z,6.53
2018-06-16T18:51:36.757Z,6.57
2018-06-16T18:54:05.145Z,7.13
2018-06-16T18:56:33.366Z,6.90
2018-06-16T18:59:01.579Z,8.57
2018-06-16T19:01:29.848Z,7.53
2018-06-16T19:03:58.133Z,7.93
2018-06-16T19:06:26.336Z,7.87
2018-06-16T19:08:54.537Z,7.30
2018-06-16T19:11:22.737Z,7.70
2018-06-16T19:13:50.942Z,8.00
2018-06-16T19:16:19.148Z,7.30
2018-06-16T19:18:47.329Z,7.30
2018-06-16T19:21:15.601Z,8.03
2018-06-16T19:23:43.777Z,7.60
2018-06-16T19:26:12.011Z,8.60
2018-06-16T19:28:40.265Z,8.20
2018-06-16T19:31:08.494Z,7.23
2018-06-16T19:33:36.761Z,8.17
2018-06-16T19:36:05.058Z,8.10
2018-06-16T19:38:33.299Z,8.50
2018-06-16T19:41:01.554Z,7.93
2018-06-16T19:43:30.121Z,6.73
2018-06-16T19:45:58.321Z,7.47
2018-06-16T19:48:26.793Z,8.80
2018-06-16T19:50:55.074Z,9.00
2018-06-16T19:53:23.374Z,7.83
2018-06-16T19:55:51.598Z,7.10
2018-06-16T19:58:19.801Z,8.60
2018-06-16T20:00:48.049Z,8.50
2018-06-16T20:03:16.298Z,9.90
2018-06-16T20:05:44.509Z,7.97
2018-06-16T20:08:12.740Z,7.40
2018-06-16T20:10:41.039Z,9.23
2018-06-16T20:13:09.272Z,7.60
2018-06-16T20:15:37.586Z,9.13
2018-06-16T20:18:05.781Z,7.43
2018-06-16T20:20:34.087Z,8.43
2018-06-16T20:23:02.296Z,10.40
2018-06-16T20:25:30.629Z,9.07
2018-06-16T20:27:58.853Z,9.30
2018-06-16T20:30:27.090Z,8.63
2018-06-16T20:32:55.483Z,8.97
2018-06-16T20:35:23.749Z,10.20
2018-06-16T20:37:52.003Z,9.43
2018-06-16T20:40:20.225Z,9.97
2018-06-16T20:42:48.169Z,9.40
2018-06-16T20:45:16.394Z,10.80
2018-06-16T20:47:44.597Z,9.40
2018-06-16T20:50:12.822Z,10.00
2018-06-16T20:52:40.805Z,10.90
2018-06-16T20:55:09.376Z,11.00
2018-06-16T20:57:37.598Z,10.40
2018-06-16T21:00:06.535Z,10.73
2018-06-16T21:02:34.918Z,11.80
2018-06-16T21:05:03.262Z,14.20
2018-06-16T21:07:31.463Z,16.00
2018-06-16T21:09:59.413Z,17.43
2018-06-16T21:12:27.759Z,18.43
2018-06-16T21:14:55.979Z,16.00
2018-06-16T21:17:24.461Z,18.50
2018-06-16T21:19:52.702Z,20.17
2018-06-16T21:22:20.911Z,17.90
2018-06-16T21:24:49.162Z,17.40
2018-06-16T21:27:17.494Z,17.77
2018-06-16T21:29:45.707Z,14.83
2018-06-16T21:32:13.963Z,14.53
2018-06-16T21:34:42.153Z,14.03
2018-06-16T21:37:10.365Z,13.47
2018-06-16T21:39:38.555Z,13.20
2018-06-16T21:42:06.575Z,15.20
2018-06-16T21:44:34.787Z,15.10
2018-06-16T21:47:03.019Z,13.23
2018-06-16T21:49:31.362Z,14.50
2018-06-16T21:51:59.662Z,14.70
2018-06-16T21:54:27.888Z,14.60
2018-06-16T21:56:56.220Z,14.73
2018-06-16T21:59:24.450Z,14.40
2018-06-16T22:01:52.981Z,13.30
2018-06-16T22:04:21.313Z,13.40
2018-06-16T22:06:49.583Z,13.47
2018-06-16T22:09:17.802Z,13.90
2018-06-16T22:11:46.091Z,13.43
2018-06-16T22:14:14.318Z,14.47
2018-06-16T22:16:42.309Z,14.20
2018-06-16T22:19:10.617Z,13.60
2018-06-16T22:21:38.875Z,14.37
2018-06-16T22:24:07.387Z,13.97
2018-06-16T22:26:35.582Z,13.10
2018-06-16T22:29:03.819Z,12.80
2018-06-16T22:31:32.135Z,14.23
2018-06-16T22:34:00.452Z,14.00
2018-06-16T22:36:28.426Z,14.80
2018-06-16T22:38:56.835Z,14.83
2018-06-16T22:41:25.051Z,14.00
2018-06-16T22:43:53.308Z,14.80
2018-06-16T22:46:21.532Z,14.03
2018-06-16T22:48:49.742Z,14.70
2018-06-16T22:51:17.976Z,18.93
2018-06-16T22:53:46.202Z,20.47
2018-06-16T22:56:14.477Z,15.80
2018-06-16T22:58:42.697Z,17.47
2018-06-16T23:01:11.004Z,18.90
2018-06-16T23:03:39.225Z,19.67
2018-06-16T23:06:07.441Z,14.03
2018-06-16T23:08:35.974Z,15.50
2018-06-16T23:11:04.185Z,14.10
2018-06-16T23:13:32.422Z,15.50
2018-06-16T23:16:00.661Z,20.90
2018-06-16T23:18:28.933Z,20.63
2018-06-16T23:20:57.157Z,25.40
2018-06-16T23:23:25.189Z,23.60
2018-06-16T23:25:53.605Z,24.27
2018-06-16T23:28:21.836Z,23.80
2018-06-16T23:30:50.149Z,22.33
2018-06-16T23:33:18.365Z,23.50
2018-06-16T23:35:46.614Z,22.70
2018-06-16T23:38:14.930Z,21.10
2018-06-16T23:40:43.206Z,24.50
2018-06-16T23:43:11.434Z,24.80
2018-06-16T23:45:39.653Z,24.13
2018-06-16T23:48:07.881Z,22.27
2018-06-16T23:50:37.101Z,24.93
2018-06-16T23:53:05.542Z,21.60
2018-06-16T23:55:33.758Z,21.77
2018-06-16T23:58:01.972Z,20.33
